Wendy C — WYB6131 — position and weather

sailwx.info

Track history (hours):
 
Tides and Currents Weather Stations Pressure Air Temp Water Temp Dewpoint Dewpoint Depression Visibility Wind Speed Wind Dir Waves Ship Positions

Wendy C

Owner: Harbor Towing & Fleeting, Inc., Metairie, LA. More information available from US FCC via Universal Licensing System and Coast Guard Vessel Documentation Center.

Last reported at 2014-Nov-21 20:10 UTC. Time now 2014-Nov-22 03:09 UTC.
Position N 29°58' W 090°02'.

Length 19 m; draft 3 m.

Type: Towing. MMSI: 366160126.

Date/timePositionNaut miles runAvg speedWind from/ knotsBaromVisibWave heightAir tempDewpointWater temp
2014-Nov-21 20:10N 29°58' W 090°02'0 0.0
2014-Nov-21 19:30N 29°58' W 090°02'1 0.7
2014-Nov-21 18:24N 29°58' W 090°02'1 1.2
2014-Nov-21 17:29N 29°59' W 090°01'1 1.2
2014-Nov-21 16:31N 29°58' W 090°02'2 1.9
2014-Nov-21 15:31N 29°56' W 090°00'0 0.0
2014-Nov-21 14:26N 29°56' W 090°00'0 0.0
2014-Nov-21 13:33N 29°56' W 090°00'0 0.0
2014-Nov-21 12:25N 29°56' W 090°00'0 0.0
2014-Nov-21 11:28N 29°56' W 090°00'0 0.0
2014-Nov-21 10:29N 29°56' W 090°00'3 1.3
2014-Nov-21 08:11N 29°55' W 089°57'5 6.3
2014-Nov-21 07:28N 29°58' W 090°02'0 0.5
2014-Nov-21 06:29N 29°58' W 090°01'0 0.3
2014-Nov-21 05:33N 29°58' W 090°02'0 0.3
2014-Nov-21 04:32N 29°58' W 090°02'2 0.6
2014-Nov-21 01:21N 29°56' W 090°00'2 2.2
2014-Nov-21 00:30N 29°58' W 090°02'2 1.7
2014-Nov-20 23:32N 29°59' W 090°01'0 0.0
2014-Nov-20 22:32N 29°59' W 090°01'0 0.0
2014-Nov-20 21:31N 29°59' W 090°01'3 0.1
2014-Nov-19 23:32N 29°56' W 090°00'0 0.0
2014-Nov-19 22:33N 29°56' W 090°00'0 0.0
2014-Nov-19 21:23N 29°56' W 090°00'0 0.0
2014-Nov-19 20:32N 29°56' W 090°00'2 2.2
2014-Nov-19 19:31N 29°56' W 089°58'2 2.2
2014-Nov-19 18:32N 29°56' W 090°00'0 0.0
2014-Nov-19 17:33N 29°56' W 090°00'0 0.0
2014-Nov-19 16:30N 29°56' W 090°00'2 2.0
2014-Nov-19 15:31N 29°58' W 090°02'3 3.0
2014-Nov-19 14:31N 29°60' W 089°59'5 5.0
2014-Nov-19 13:33N 30°01' W 089°54'0 0.0
2014-Nov-19 12:06N 30°01' W 089°54'1 1.8
2014-Nov-19 11:20N 30°01' W 089°55'5 5.9
2014-Nov-19 10:33N 29°60' W 090°00'4 0.2
2014-Nov-18 18:27N 29°56' W 090°00'3 2.4
2014-Nov-18 17:08N 29°59' W 090°01'1 0.8
2014-Nov-18 16:12N 29°60' W 090°00'2 3.1
2014-Nov-18 15:33N 29°58' W 090°02'1 1.2
2014-Nov-18 14:21N 29°57' W 090°01'1 0.7
2014-Nov-18 13:32N 29°56' W 090°00'0 0.0
2014-Nov-18 12:33N 29°56' W 090°00'0 0.0
2014-Nov-18 11:33N 29°56' W 090°00'0 0.0
2014-Nov-18 10:32N 29°56' W 090°00'0 0.0
2014-Nov-18 09:33N 29°56' W 090°00'0 0.0
2014-Nov-18 08:31N 29°56' W 090°00'2 2.0
2014-Nov-18 07:32N 29°58' W 090°02'2 2.3
2014-Nov-18 06:32N 29°60' W 090°00'0 0.0
2014-Nov-18 05:33N 29°60' W 090°00'2 2.1
2014-Nov-18 04:30N 29°58' W 090°02'1 1.1
2014-Nov-18 03:33N 29°57' W 090°01'2 1.6
2014-Nov-18 02:25N 29°56' W 089°59'1 1.1
2014-Nov-18 01:31N 29°56' W 090°00'0 0.0
2014-Nov-17 22:30N 29°56' W 090°00'0 0.2
2014-Nov-17 21:31N 29°56' W 090°00'0 0.0
2014-Nov-17 07:20N 29°56' W 090°00'1 1.3
2014-Nov-17 06:31N 29°57' W 090°01'1 1.2
2014-Nov-17 05:33N 29°58' W 090°02'0 0.3
2014-Nov-17 04:31N 29°58' W 090°01'1 1.5
2014-Nov-17 03:32N 29°60' W 090°01'1 1.0
2014-Nov-17 02:32N 29°59' W 090°01'1 1.5
2014-Nov-17 01:33N 29°60' W 090°00'3 2.7
2014-Nov-17 00:33N 29°58' W 090°02'0 0.4
2014-Nov-16 23:33N 29°57' W 090°01'2 1.6
2014-Nov-16 22:32N 29°56' W 090°00'0 0.1
2014-Nov-16 21:30N 29°56' W 090°00'0 0.1
2014-Nov-16 20:26N 29°56' W 090°00'1 1.5
2014-Nov-16 19:32N 29°57' W 090°02'1 0.0
2014-Nov-16 06:29N 29°58' W 090°02'0 0.1
2014-Nov-16 03:31N 29°58' W 090°02'8 3.8
2014-Nov-16 01:31N 30°01' W 089°53'1 0.8
2014-Nov-16 00:23N 30°01' W 089°54'5 5.2
2014-Nov-15 23:31N 29°60' W 089°60'3 2.8
2014-Nov-15 22:33N 29°58' W 090°02'1 0.7
2014-Nov-15 21:33N 29°57' W 090°01'0 0.2
2014-Nov-15 20:33N 29°57' W 090°02'1 1.4
2014-Nov-15 19:31N 29°56' W 090°00'0 0.0
2014-Nov-15 18:32N 29°56' W 090°00'0 0.0
2014-Nov-15 17:29N 29°56' W 090°00'0 0.0
2014-Nov-15 16:30N 29°56' W 090°00'0 0.0
2014-Nov-15 01:31N 29°56' W 090°00'3 2.9
2014-Nov-15 00:30N 29°57' W 090°04'3 2.9
2014-Nov-14 23:32N 29°55' W 090°05'0 0.0
2014-Nov-14 22:32N 29°55' W 090°05'0 0.0
2014-Nov-14 21:32N 29°55' W 090°05'0 0.0
2014-Nov-14 20:30N 29°55' W 090°05'0 0.0
2014-Nov-14 19:33N 29°55' W 090°05'0 0.0
2014-Nov-14 18:33N 29°55' W 090°05'2 1.9
2014-Nov-14 17:32N 29°56' W 090°03'3 2.8
2014-Nov-14 16:33N 29°56' W 090°00'1 0.7
2014-Nov-14 15:25N 29°57' W 090°01'2 2.5
2014-Nov-14 14:33N 29°59' W 090°01'2 0.8
2014-Nov-14 12:14N 29°60' W 089°59'1 0.1
2014-Nov-13 15:33N 29°60' W 090°01'2 1.7
2014-Nov-13 14:26N 29°58' W 090°02'2 1.9
2014-Nov-13 13:30N 29°56' W 090°00'2 1.0
2014-Nov-13 11:23N 29°55' W 089°59'1 0.3
2014-Nov-13 09:24N 29°54' W 089°59'1 1.5
2014-Nov-13 08:31N 29°55' W 089°58'2 0.8
2014-Nov-13 05:33N 29°56' W 090°00'0 0.0
2014-Nov-13 04:32N 29°56' W 090°00'0 0.0
2014-Nov-13 03:33N 29°56' W 090°00'0 0.0
2014-Nov-13 02:27N 29°56' W 090°00'2 0.8
2014-Nov-12 23:26N 29°54' W 089°59'2 0.8
2014-Nov-12 21:22N 29°56' W 089°60'  
Track history (hours):
 
Tides and Currents Weather Stations Pressure Air Temp Water Temp Dewpoint Dewpoint Depression Visibility Wind Speed Wind Dir Waves Ship Positions

Wendy C

Owner: Harbor Towing & Fleeting, Inc., Metairie, LA. More information available from US FCC via Universal Licensing System and Coast Guard Vessel Documentation Center.

Last reported at 2014-Nov-21 20:10 UTC. Time now 2014-Nov-22 03:09 UTC.
Position N 29°58' W 090°02'.

Length 19 m; draft 3 m.

Type: Towing. MMSI: 366160126.

Date/timePositionNaut miles runAvg speedWind from/ knotsBaromVisibWave heightAir tempDewpointWater temp
2014-Nov-21 20:10N 29°58' W 090°02'0 0.0
2014-Nov-21 19:30N 29°58' W 090°02'1 0.7
2014-Nov-21 18:24N 29°58' W 090°02'1 1.2
2014-Nov-21 17:29N 29°59' W 090°01'1 1.2
2014-Nov-21 16:31N 29°58' W 090°02'2 1.9
2014-Nov-21 15:31N 29°56' W 090°00'0 0.0
2014-Nov-21 14:26N 29°56' W 090°00'0 0.0
2014-Nov-21 13:33N 29°56' W 090°00'0 0.0
2014-Nov-21 12:25N 29°56' W 090°00'0 0.0
2014-Nov-21 11:28N 29°56' W 090°00'0 0.0
2014-Nov-21 10:29N 29°56' W 090°00'3 1.3
2014-Nov-21 08:11N 29°55' W 089°57'5 6.3
2014-Nov-21 07:28N 29°58' W 090°02'0 0.5
2014-Nov-21 06:29N 29°58' W 090°01'0 0.3
2014-Nov-21 05:33N 29°58' W 090°02'0 0.3
2014-Nov-21 04:32N 29°58' W 090°02'2 0.6
2014-Nov-21 01:21N 29°56' W 090°00'2 2.2
2014-Nov-21 00:30N 29°58' W 090°02'2 1.7
2014-Nov-20 23:32N 29°59' W 090°01'0 0.0
2014-Nov-20 22:32N 29°59' W 090°01'0 0.0
2014-Nov-20 21:31N 29°59' W 090°01'3 0.1
2014-Nov-19 23:32N 29°56' W 090°00'0 0.0
2014-Nov-19 22:33N 29°56' W 090°00'0 0.0
2014-Nov-19 21:23N 29°56' W 090°00'0 0.0
2014-Nov-19 20:32N 29°56' W 090°00'2 2.2
2014-Nov-19 19:31N 29°56' W 089°58'2 2.2
2014-Nov-19 18:32N 29°56' W 090°00'0 0.0
2014-Nov-19 17:33N 29°56' W 090°00'0 0.0
2014-Nov-19 16:30N 29°56' W 090°00'2 2.0
2014-Nov-19 15:31N 29°58' W 090°02'3 3.0
2014-Nov-19 14:31N 29°60' W 089°59'5 5.0
2014-Nov-19 13:33N 30°01' W 089°54'0 0.0
2014-Nov-19 12:06N 30°01' W 089°54'1 1.8
2014-Nov-19 11:20N 30°01' W 089°55'5 5.9
2014-Nov-19 10:33N 29°60' W 090°00'4 0.2
2014-Nov-18 18:27N 29°56' W 090°00'3 2.4
2014-Nov-18 17:08N 29°59' W 090°01'1 0.8
2014-Nov-18 16:12N 29°60' W 090°00'2 3.1
2014-Nov-18 15:33N 29°58' W 090°02'1 1.2
2014-Nov-18 14:21N 29°57' W 090°01'1 0.7
2014-Nov-18 13:32N 29°56' W 090°00'0 0.0
2014-Nov-18 12:33N 29°56' W 090°00'0 0.0
2014-Nov-18 11:33N 29°56' W 090°00'0 0.0
2014-Nov-18 10:32N 29°56' W 090°00'0 0.0
2014-Nov-18 09:33N 29°56' W 090°00'0 0.0
2014-Nov-18 08:31N 29°56' W 090°00'2 2.0
2014-Nov-18 07:32N 29°58' W 090°02'2 2.3
2014-Nov-18 06:32N 29°60' W 090°00'0 0.0
2014-Nov-18 05:33N 29°60' W 090°00'2 2.1
2014-Nov-18 04:30N 29°58' W 090°02'1 1.1
2014-Nov-18 03:33N 29°57' W 090°01'2 1.6
2014-Nov-18 02:25N 29°56' W 089°59'1 1.1
2014-Nov-18 01:31N 29°56' W 090°00'0 0.0
2014-Nov-17 22:30N 29°56' W 090°00'0 0.2
2014-Nov-17 21:31N 29°56' W 090°00'0 0.0
2014-Nov-17 07:20N 29°56' W 090°00'1 1.3
2014-Nov-17 06:31N 29°57' W 090°01'1 1.2
2014-Nov-17 05:33N 29°58' W 090°02'0 0.3
2014-Nov-17 04:31N 29°58' W 090°01'1 1.5
2014-Nov-17 03:32N 29°60' W 090°01'1 1.0
2014-Nov-17 02:32N 29°59' W 090°01'1 1.5
2014-Nov-17 01:33N 29°60' W 090°00'3 2.7
2014-Nov-17 00:33N 29°58' W 090°02'0 0.4
2014-Nov-16 23:33N 29°57' W 090°01'2 1.6
2014-Nov-16 22:32N 29°56' W 090°00'0 0.1
2014-Nov-16 21:30N 29°56' W 090°00'0 0.1
2014-Nov-16 20:26N 29°56' W 090°00'1 1.5
2014-Nov-16 19:32N 29°57' W 090°02'1 0.0
2014-Nov-16 06:29N 29°58' W 090°02'0 0.1
2014-Nov-16 03:31N 29°58' W 090°02'8 3.8
2014-Nov-16 01:31N 30°01' W 089°53'1 0.8
2014-Nov-16 00:23N 30°01' W 089°54'5 5.2
2014-Nov-15 23:31N 29°60' W 089°60'3 2.8
2014-Nov-15 22:33N 29°58' W 090°02'1 0.7
2014-Nov-15 21:33N 29°57' W 090°01'0 0.2
2014-Nov-15 20:33N 29°57' W 090°02'1 1.4
2014-Nov-15 19:31N 29°56' W 090°00'0 0.0
2014-Nov-15 18:32N 29°56' W 090°00'0 0.0
2014-Nov-15 17:29N 29°56' W 090°00'0 0.0
2014-Nov-15 16:30N 29°56' W 090°00'0 0.0
2014-Nov-15 01:31N 29°56' W 090°00'3 2.9
2014-Nov-15 00:30N 29°57' W 090°04'3 2.9
2014-Nov-14 23:32N 29°55' W 090°05'0 0.0
2014-Nov-14 22:32N 29°55' W 090°05'0 0.0
2014-Nov-14 21:32N 29°55' W 090°05'0 0.0
2014-Nov-14 20:30N 29°55' W 090°05'0 0.0
2014-Nov-14 19:33N 29°55' W 090°05'0 0.0
2014-Nov-14 18:33N 29°55' W 090°05'2 1.9
2014-Nov-14 17:32N 29°56' W 090°03'3 2.8
2014-Nov-14 16:33N 29°56' W 090°00'1 0.7
2014-Nov-14 15:25N 29°57' W 090°01'2 2.5
2014-Nov-14 14:33N 29°59' W 090°01'2 0.8
2014-Nov-14 12:14N 29°60' W 089°59'1 0.1
2014-Nov-13 15:33N 29°60' W 090°01'2 1.7
2014-Nov-13 14:26N 29°58' W 090°02'2 1.9
2014-Nov-13 13:30N 29°56' W 090°00'2 1.0
2014-Nov-13 11:23N 29°55' W 089°59'1 0.3
2014-Nov-13 09:24N 29°54' W 089°59'1 1.5
2014-Nov-13 08:31N 29°55' W 089°58'2 0.8
2014-Nov-13 05:33N 29°56' W 090°00'0 0.0
2014-Nov-13 04:32N 29°56' W 090°00'0 0.0
2014-Nov-13 03:33N 29°56' W 090°00'0 0.0
2014-Nov-13 02:27N 29°56' W 090°00'2 0.8
2014-Nov-12 23:26N 29°54' W 089°59'2 0.8
2014-Nov-12 21:22N 29°56' W 089°60'  

Dump ship's entire track history